createdAt,value
2023-03-02T00:00:44.464Z,6660.00
2023-03-02T00:05:51.816Z,-432.00
2023-03-02T00:10:59.226Z,-432.00
2023-03-02T00:16:06.668Z,-432.00
2023-03-02T00:21:13.850Z,-432.00
2023-03-02T00:26:21.100Z,-468.00
2023-03-02T00:31:28.305Z,-432.00
2023-03-02T00:36:35.464Z,-432.00
2023-03-02T00:41:42.625Z,-432.00
2023-03-02T00:46:49.839Z,-432.00
2023-03-02T00:51:57.047Z,-432.00
2023-03-02T00:57:04.191Z,-432.00
2023-03-02T01:02:11.473Z,-432.00
2023-03-02T01:07:18.706Z,-432.00
2023-03-02T01:12:25.939Z,-432.00
2023-03-02T01:17:33.208Z,-432.00
2023-03-02T01:22:40.644Z,-432.00
2023-03-02T01:27:56.949Z,-432.00
2023-03-02T01:33:04.597Z,-432.00
2023-03-02T01:38:13.379Z,-432.00
2023-03-02T01:43:21.202Z,-432.00
2023-03-02T01:48:28.654Z,-432.00
2023-03-02T01:53:36.178Z,-432.00
2023-03-02T01:58:43.424Z,-432.00
2023-03-02T02:03:50.895Z,-432.00
2023-03-02T02:08:58.317Z,-432.00
2023-03-02T02:14:05.712Z,-432.00
2023-03-02T02:19:13.096Z,-432.00
2023-03-02T02:24:20.482Z,-432.00
2023-03-02T02:29:27.907Z,-432.00
2023-03-02T02:34:35.328Z,-432.00
2023-03-02T02:39:42.783Z,-432.00
2023-03-02T02:44:50.126Z,-432.00
2023-03-02T02:49:57.531Z,-432.00
2023-03-02T02:55:05.057Z,-432.00
2023-03-02T03:00:12.554Z,-432.00
2023-03-02T03:05:19.956Z,-432.00
2023-03-02T03:10:27.533Z,-432.00
2023-03-02T03:15:34.997Z,-432.00
2023-03-02T03:20:42.361Z,-432.00
2023-03-02T03:25:49.750Z,-432.00
2023-03-02T03:30:57.099Z,-396.00
2023-03-02T03:36:04.434Z,-432.00
2023-03-02T03:41:11.753Z,-432.00
2023-03-02T03:46:19.129Z,-432.00
2023-03-02T03:51:26.386Z,-432.00
2023-03-02T03:56:34.415Z,-432.00
2023-03-02T04:01:41.378Z,-432.00
2023-03-02T04:06:48.679Z,-432.00
2023-03-02T04:11:56.011Z,-432.00
2023-03-02T04:17:03.336Z,-432.00
2023-03-02T04:22:10.745Z,-432.00
2023-03-02T04:27:18.196Z,-432.00
2023-03-02T04:32:25.672Z,-432.00
2023-03-02T04:37:33.096Z,-432.00
2023-03-02T04:42:40.392Z,-432.00
2023-03-02T04:47:47.684Z,-432.00
2023-03-02T04:52:54.922Z,-432.00
2023-03-02T04:58:02.457Z,-432.00
2023-03-02T05:03:09.721Z,-432.00
2023-03-02T05:08:17.141Z,-432.00
2023-03-02T05:13:24.456Z,-396.00
2023-03-02T05:18:31.934Z,-432.00
2023-03-02T05:23:39.174Z,-432.00
2023-03-02T05:28:46.542Z,-432.00
2023-03-02T05:33:53.844Z,-432.00
2023-03-02T05:39:01.168Z,-432.00
2023-03-02T05:44:08.658Z,-432.00
2023-03-02T05:49:15.859Z,-432.00
2023-03-02T05:54:23.438Z,-432.00
2023-03-02T05:59:30.836Z,-432.00
2023-03-02T06:04:38.111Z,-396.00
2023-03-02T06:09:45.475Z,-396.00
2023-03-02T06:14:52.780Z,-396.00
2023-03-02T06:20:00.042Z,-396.00
2023-03-02T06:25:07.361Z,-360.00
2023-03-02T06:30:14.660Z,-360.00
2023-03-02T06:35:22.043Z,-360.00
2023-03-02T06:40:29.180Z,-360.00
2023-03-02T06:45:36.588Z,-360.00
2023-03-02T06:50:43.876Z,-360.00
2023-03-02T06:55:51.266Z,-324.00
2023-03-02T07:00:58.764Z,-324.00
2023-03-02T07:06:06.261Z,-324.00
2023-03-02T07:11:13.468Z,-324.00
2023-03-02T07:16:20.857Z,-324.00
2023-03-02T07:21:28.203Z,-324.00
2023-03-02T07:26:35.583Z,-324.00
2023-03-02T07:31:43.110Z,-324.00
2023-03-02T07:36:50.392Z,-288.00
2023-03-02T07:41:57.868Z,-324.00
2023-03-02T07:47:05.289Z,-288.00
2023-03-02T07:52:12.549Z,-252.00
2023-03-02T07:57:20.038Z,-252.00
2023-03-02T08:02:27.500Z,-180.00
2023-03-02T08:07:34.736Z,-180.00
2023-03-02T08:12:42.220Z,-180.00
2023-03-02T08:17:49.572Z,-180.00
2023-03-02T08:22:56.989Z,-216.00
2023-03-02T08:28:04.293Z,-144.00
2023-03-02T08:33:11.733Z,18180.00
2023-03-02T08:38:19.429Z,18360.00
2023-03-02T08:43:26.710Z,19260.00
2023-03-02T08:48:34.112Z,20052.00
2023-03-02T08:53:41.460Z,20340.00
2023-03-02T08:58:48.924Z,20880.00
2023-03-02T09:03:56.429Z,21204.00
2023-03-02T09:09:03.820Z,22068.00
2023-03-02T09:14:11.290Z,21312.00
2023-03-02T09:19:18.801Z,22248.00
2023-03-02T09:24:26.232Z,23904.00
2023-03-02T09:29:33.515Z,24084.00
2023-03-02T09:34:40.960Z,23976.00
2023-03-02T09:39:48.429Z,24048.00
2023-03-02T09:44:55.861Z,23472.00
2023-03-02T09:50:03.331Z,24084.00
2023-03-02T09:55:10.672Z,24516.00
2023-03-02T10:00:20.203Z,23796.00
2023-03-02T10:05:25.511Z,22536.00
2023-03-02T10:10:32.802Z,21960.00
2023-03-02T10:15:40.427Z,20916.00
2023-03-02T10:20:47.859Z,21636.00
2023-03-02T10:25:55.215Z,21024.00
2023-03-02T10:31:05.113Z,20916.00
2023-03-02T10:36:09.882Z,22248.00
2023-03-02T10:41:17.195Z,22608.00
2023-03-02T10:46:24.686Z,25560.00
2023-03-02T10:51:32.067Z,25740.00
2023-03-02T10:56:39.466Z,24696.00
2023-03-02T11:01:46.857Z,23436.00
2023-03-02T11:06:54.580Z,23904.00
2023-03-02T11:12:02.899Z,23760.00
2023-03-02T11:17:10.188Z,22608.00
2023-03-02T11:22:17.458Z,22284.00
2023-03-02T11:27:24.682Z,23688.00
2023-03-02T11:32:32.181Z,24228.00
2023-03-02T11:37:42.228Z,24300.00
2023-03-02T11:42:49.620Z,21528.00
2023-03-02T11:48:02.577Z,22680.00
2023-03-02T11:53:04.402Z,23940.00
2023-03-02T11:58:11.942Z,23796.00
2023-03-02T12:03:19.338Z,24228.00
2023-03-02T12:08:26.705Z,23796.00
2023-03-02T12:13:34.026Z,23760.00
2023-03-02T12:18:41.371Z,23544.00
2023-03-02T12:23:48.758Z,23868.00
2023-03-02T12:28:57.743Z,23796.00
2023-03-02T12:34:03.486Z,23760.00
2023-03-02T12:39:11.016Z,23796.00
2023-03-02T12:44:19.934Z,23832.00
2023-03-02T12:49:27.397Z,23148.00
2023-03-02T12:54:34.869Z,23364.00
2023-03-02T12:59:43.126Z,23004.00
2023-03-02T13:04:50.474Z,23328.00
2023-03-02T13:09:58.103Z,23076.00
2023-03-02T13:15:05.301Z,23040.00
2023-03-02T13:20:12.558Z,22788.00
2023-03-02T13:25:19.919Z,22644.00
2023-03-02T13:30:27.238Z,21960.00
2023-03-02T13:35:34.458Z,21960.00
2023-03-02T13:40:41.900Z,22068.00
2023-03-02T13:45:49.281Z,21888.00
2023-03-02T13:50:56.735Z,21492.00
2023-03-02T13:56:04.132Z,21240.00
2023-03-02T14:01:11.559Z,20520.00
2023-03-02T14:06:18.943Z,19692.00
2023-03-02T14:11:26.200Z,19908.00
2023-03-02T14:16:33.986Z,19692.00
2023-03-02T14:21:43.887Z,18576.00
2023-03-02T14:26:48.837Z,18792.00
2023-03-02T14:31:56.053Z,18756.00
2023-03-02T14:37:03.346Z,16596.00
2023-03-02T14:42:10.808Z,16344.00
2023-03-02T14:47:18.339Z,16128.00
2023-03-02T14:52:25.669Z,15336.00
2023-03-02T14:57:33.185Z,15588.00
2023-03-02T15:02:40.728Z,14004.00
2023-03-02T15:07:48.115Z,13500.00
2023-03-02T15:12:55.567Z,12744.00
2023-03-02T15:18:02.926Z,13500.00
2023-03-02T15:23:10.425Z,11736.00
2023-03-02T15:28:17.718Z,12168.00
2023-03-02T15:33:25.255Z,11052.00
2023-03-02T15:38:32.735Z,10800.00
2023-03-02T15:43:40.152Z,10476.00
2023-03-02T15:48:47.399Z,10548.00
2023-03-02T15:53:54.767Z,10224.00
2023-03-02T15:59:05.296Z,9072.00
2023-03-02T16:04:12.776Z,8676.00
2023-03-02T16:09:20.198Z,8460.00
2023-03-02T16:14:27.555Z,7776.00
2023-03-02T16:19:34.887Z,6624.00
2023-03-02T16:24:42.466Z,6372.00
2023-03-02T16:29:50.208Z,5004.00
2023-03-02T16:34:57.597Z,3780.00
2023-03-02T16:40:04.891Z,3132.00
2023-03-02T16:45:12.301Z,2556.00
2023-03-02T16:50:19.607Z,1944.00
2023-03-02T16:55:26.951Z,1512.00
2023-03-02T17:00:34.288Z,828.00
2023-03-02T17:05:47.063Z,396.00
2023-03-02T17:10:54.492Z,36.00
2023-03-02T17:16:01.872Z,-216.00
2023-03-02T17:21:09.018Z,1584.00
2023-03-02T17:26:16.479Z,1404.00
2023-03-02T17:31:23.906Z,1800.00
2023-03-02T17:36:31.009Z,1584.00
2023-03-02T17:41:38.231Z,1584.00
2023-03-02T17:46:45.723Z,1584.00
2023-03-02T17:51:52.981Z,1584.00
2023-03-02T17:57:00.339Z,1584.00
2023-03-02T18:02:08.060Z,1044.00
2023-03-02T18:07:15.354Z,1080.00
2023-03-02T18:12:22.571Z,1080.00
2023-03-02T18:17:29.819Z,1044.00
2023-03-02T18:22:37.056Z,1080.00
2023-03-02T18:27:44.693Z,1044.00
2023-03-02T18:32:52.208Z,972.00
2023-03-02T18:37:59.708Z,972.00
2023-03-02T18:43:07.130Z,972.00
2023-03-02T18:48:14.645Z,972.00
2023-03-02T18:53:22.235Z,972.00
2023-03-02T18:58:32.162Z,972.00
2023-03-02T19:03:37.839Z,972.00
2023-03-02T19:08:45.391Z,972.00
2023-03-02T19:13:52.971Z,972.00
2023-03-02T19:19:00.643Z,972.00
2023-03-02T19:24:08.228Z,972.00
2023-03-02T19:29:15.842Z,972.00
2023-03-02T19:34:23.355Z,972.00
2023-03-02T19:39:31.069Z,1728.00
2023-03-02T19:44:38.689Z,324.00
2023-03-02T19:49:46.240Z,360.00
2023-03-02T19:54:53.823Z,360.00
2023-03-02T20:00:01.431Z,360.00
2023-03-02T20:05:09.061Z,360.00
2023-03-02T20:10:16.657Z,360.00
2023-03-02T20:15:24.369Z,-360.00
2023-03-02T20:20:32.508Z,-360.00
2023-03-02T20:25:39.902Z,10692.00
2023-03-02T20:30:47.566Z,10548.00
2023-03-02T20:35:55.166Z,10476.00
2023-03-02T20:41:02.707Z,10548.00
2023-03-02T20:46:10.312Z,10512.00
2023-03-02T20:51:17.574Z,10368.00
2023-03-02T20:56:25.082Z,10476.00
2023-03-02T21:01:32.671Z,10584.00
2023-03-02T21:06:39.733Z,10548.00
2023-03-02T21:11:47.155Z,10512.00
2023-03-02T21:16:54.571Z,10512.00
2023-03-02T21:22:01.825Z,10548.00
2023-03-02T21:27:09.335Z,10476.00
2023-03-02T21:32:17.040Z,10476.00
2023-03-02T21:37:24.328Z,10404.00
2023-03-02T21:42:31.773Z,10440.00
2023-03-02T21:47:39.064Z,10296.00
2023-03-02T21:52:46.311Z,10404.00
2023-03-02T21:57:53.434Z,10368.00
2023-03-02T22:03:00.658Z,10512.00
2023-03-02T22:08:07.962Z,10512.00
2023-03-02T22:13:15.128Z,10512.00
2023-03-02T22:18:22.422Z,10404.00
2023-03-02T22:23:29.648Z,10368.00
2023-03-02T22:28:36.853Z,10476.00
2023-03-02T22:33:44.132Z,10512.00
2023-03-02T22:38:51.497Z,10440.00
2023-03-02T22:43:58.739Z,10548.00
2023-03-02T22:49:06.006Z,10476.00
2023-03-02T22:54:13.215Z,10908.00
2023-03-02T22:59:20.408Z,10980.00
2023-03-02T23:04:27.857Z,10944.00
2023-03-02T23:09:35.057Z,9684.00
2023-03-02T23:14:42.212Z,9720.00
2023-03-02T23:19:49.400Z,9360.00
2023-03-02T23:24:56.697Z,9756.00
2023-03-02T23:30:04.079Z,9684.00
2023-03-02T23:35:11.245Z,9324.00
2023-03-02T23:40:18.555Z,-432.00
2023-03-02T23:45:26.210Z,-432.00
2023-03-02T23:50:33.626Z,-432.00
2023-03-02T23:55:41.276Z,-432.00
